createdAt,value
2023-03-10T00:01:01.931Z,93821.09
2023-03-10T00:03:33.408Z,93808.97
2023-03-10T00:06:05.462Z,93802.16
2023-03-10T00:08:37.140Z,93812.00
2023-03-10T00:11:09.164Z,93801.78
2023-03-10T00:13:41.241Z,93790.06
2023-03-10T00:16:28.898Z,93785.53
2023-03-10T00:19:01.316Z,93784.03
2023-03-10T00:21:33.202Z,93780.59
2023-03-10T00:24:04.844Z,93780.22
2023-03-10T00:26:38.602Z,93775.69
2023-03-10T00:29:13.567Z,93780.63
2023-03-10T00:31:45.290Z,93769.28
2023-03-10T00:34:16.823Z,93765.88
2023-03-10T00:36:48.415Z,93757.19
2023-03-10T00:39:19.982Z,93755.66
2023-03-10T00:41:51.514Z,93754.53
2023-03-10T00:44:23.147Z,93759.84
2023-03-10T00:46:55.156Z,93757.56
2023-03-10T00:49:26.702Z,93752.28
2023-03-10T00:51:58.244Z,93754.19
2023-03-10T00:54:29.764Z,93744.72
2023-03-10T00:57:01.632Z,93744.72
2023-03-10T00:59:47.792Z,93746.25
2023-03-10T01:02:21.600Z,93739.06
2023-03-10T01:04:53.119Z,93721.66
2023-03-10T01:07:24.691Z,93721.66
2023-03-10T01:09:56.359Z,93710.31
2023-03-10T01:12:27.944Z,93702.34
2023-03-10T01:15:01.212Z,93700.06
2023-03-10T01:17:33.092Z,93696.28
2023-03-10T01:20:09.875Z,93687.97
2023-03-10T01:22:41.618Z,93689.84
2023-03-10T01:25:17.156Z,93680.03
2023-03-10T01:27:48.674Z,93675.47
2023-03-10T01:30:20.447Z,93676.59
2023-03-10T01:32:52.086Z,93667.16
2023-03-10T01:35:23.647Z,93661.47
2023-03-10T01:37:55.209Z,93653.16
2023-03-10T01:40:26.898Z,93657.31
2023-03-10T01:43:20.504Z,93647.09
2023-03-10T01:45:51.975Z,93643.69
2023-03-10T01:48:23.951Z,93636.50
2023-03-10T01:50:57.242Z,93631.19
2023-03-10T01:53:29.520Z,93627.44
2023-03-10T01:56:05.305Z,93615.69
2023-03-10T01:58:44.377Z,93604.34
2023-03-10T02:01:18.218Z,93607.75
2023-03-10T02:04:09.893Z,93599.47
2023-03-10T02:06:43.133Z,93598.31
2023-03-10T02:09:16.556Z,93593.41
2023-03-10T02:11:49.413Z,93585.84
2023-03-10T02:14:21.327Z,93571.09
2023-03-10T02:16:53.143Z,93578.28
2023-03-10T02:19:35.981Z,93567.69
2023-03-10T02:22:10.313Z,93555.59
2023-03-10T02:24:57.737Z,93554.09
2023-03-10T02:27:36.945Z,93550.31
2023-03-10T02:30:34.492Z,93548.06
2023-03-10T02:33:20.325Z,93543.16
2023-03-10T02:35:52.241Z,93539.75
2023-03-10T02:38:23.826Z,93531.06
2023-03-10T02:40:57.573Z,93528.44
2023-03-10T02:43:32.879Z,93518.22
2023-03-10T02:46:06.904Z,93508.75
2023-03-10T02:48:39.164Z,93509.16
2023-03-10T02:51:18.702Z,93506.13
2023-03-10T02:53:50.592Z,93504.22
2023-03-10T02:56:22.216Z,93508.00
2023-03-10T02:58:54.097Z,93501.56
2023-03-10T03:01:30.647Z,93500.06
2023-03-10T03:04:02.537Z,93499.28
2023-03-10T03:06:34.617Z,93500.44
2023-03-10T03:09:06.144Z,93501.16
2023-03-10T03:11:37.900Z,93491.31
2023-03-10T03:14:09.555Z,93495.09
2023-03-10T03:16:41.322Z,93481.06
2023-03-10T03:19:12.903Z,93481.84
2023-03-10T03:21:49.868Z,93490.88
2023-03-10T03:24:21.990Z,93481.81
2023-03-10T03:26:53.657Z,93487.47
2023-03-10T03:29:25.196Z,93488.59
2023-03-10T03:31:56.843Z,93496.16
2023-03-10T03:34:28.508Z,93502.53
2023-03-10T03:37:00.145Z,93506.34
2023-03-10T03:39:31.772Z,93507.06
2023-03-10T03:42:03.726Z,93509.38
2023-03-10T03:44:35.301Z,93533.59
2023-03-10T03:47:09.050Z,93540.78
2023-03-10T03:49:40.594Z,93548.88
2023-03-10T03:52:12.108Z,93568.63
2023-03-10T03:54:43.629Z,93601.53
2023-03-10T03:57:15.128Z,93582.22
2023-03-10T03:59:46.558Z,93584.13
2023-03-10T04:02:18.521Z,93592.06
2023-03-10T04:04:50.268Z,93597.75
2023-03-10T04:07:21.821Z,93598.84
2023-03-10T04:09:53.423Z,93604.09
2023-03-10T04:12:29.791Z,93612.03
2023-03-10T04:15:01.542Z,93604.41
2023-03-10T04:17:33.509Z,93613.50
2023-03-10T04:20:08.699Z,93614.59
2023-03-10T04:22:41.200Z,93608.53
2023-03-10T04:25:13.143Z,93605.50
2023-03-10T04:27:44.690Z,93591.84
2023-03-10T04:30:16.213Z,93591.06
2023-03-10T04:32:49.234Z,93591.03
2023-03-10T04:35:20.975Z,93600.44
2023-03-10T04:37:53.887Z,93597.44
2023-03-10T04:40:25.408Z,93602.69
2023-03-10T04:42:57.000Z,93591.28
2023-03-10T04:45:28.525Z,93598.81
2023-03-10T04:48:00.207Z,93587.41
2023-03-10T04:50:31.817Z,93592.66
2023-03-10T04:53:03.394Z,93593.38
2023-03-10T04:55:35.053Z,93594.81
2023-03-10T04:58:06.669Z,93603.09
2023-03-10T05:00:53.087Z,93597.00
2023-03-10T05:03:31.972Z,93589.41
2023-03-10T05:06:04.278Z,93590.88
2023-03-10T05:08:35.856Z,93586.66
2023-03-10T05:11:08.023Z,93585.13
2023-03-10T05:13:39.556Z,93593.41
2023-03-10T05:16:16.573Z,93593.38
2023-03-10T05:18:48.756Z,93591.78
2023-03-10T05:21:21.904Z,93589.13
2023-03-10T05:23:53.548Z,93593.63
2023-03-10T05:26:25.482Z,93581.88
2023-03-10T05:28:57.705Z,93589.81
2023-03-10T05:31:29.453Z,93595.06
2023-03-10T05:34:01.082Z,93588.63
2023-03-10T05:36:32.642Z,93596.19
2023-03-10T05:39:05.871Z,93590.47
2023-03-10T05:41:38.828Z,93591.63
2023-03-10T05:44:10.545Z,93584.06
2023-03-10T05:46:42.214Z,93588.56
2023-03-10T05:49:13.811Z,93586.69
2023-03-10T05:51:45.267Z,93590.13
2023-03-10T05:54:16.808Z,93578.41
2023-03-10T05:56:48.443Z,93559.81
2023-03-10T05:59:20.080Z,93552.53
2023-03-10T06:01:51.664Z,93552.94
2023-03-10T06:04:23.230Z,93551.03
2023-03-10T06:06:56.091Z,93552.19
2023-03-10T06:09:32.514Z,93549.88
2023-03-10T06:12:04.444Z,93533.94
2023-03-10T06:14:38.143Z,93545.31
2023-03-10T06:17:09.858Z,93536.56
2023-03-10T06:19:41.447Z,93535.06
2023-03-10T06:22:13.202Z,93523.28
2023-03-10T06:24:45.537Z,93538.06
2023-03-10T06:27:16.898Z,93524.03
2023-03-10T06:29:49.712Z,93514.16
2023-03-10T06:32:21.678Z,93514.91
2023-03-10T06:34:53.511Z,93509.53
2023-03-10T06:37:25.076Z,93506.84
2023-03-10T06:39:56.843Z,93503.75
2023-03-10T06:42:28.434Z,93490.81
2023-03-10T06:45:01.843Z,93492.28
2023-03-10T06:47:33.381Z,93488.41
2023-03-10T06:50:06.364Z,93501.63
2023-03-10T06:52:37.907Z,93491.72
2023-03-10T06:55:10.820Z,93492.47
2023-03-10T06:57:42.745Z,93493.97
2023-03-10T07:00:15.837Z,93491.97
2023-03-10T07:02:47.353Z,93483.91
2023-03-10T07:05:19.485Z,93466.66
2023-03-10T07:07:51.153Z,93457.50
2023-03-10T07:10:23.057Z,93464.63
2023-03-10T07:12:58.820Z,93467.16
2023-03-10T07:15:30.449Z,93468.94
2023-03-10T07:18:02.235Z,93463.53
2023-03-10T07:20:34.150Z,93472.16
2023-03-10T07:23:06.072Z,93470.91
2023-03-10T07:25:41.144Z,93487.19
2023-03-10T07:28:12.807Z,93481.41
2023-03-10T07:30:44.614Z,93487.81
2023-03-10T07:33:16.931Z,93489.66
2023-03-10T07:35:49.014Z,93485.47
2023-03-10T07:38:20.592Z,93489.56
2023-03-10T07:40:52.141Z,93481.56
2023-03-10T07:43:23.654Z,93478.72
2023-03-10T07:45:56.181Z,93477.50
2023-03-10T07:48:27.926Z,93475.94
2023-03-10T07:51:00.230Z,93479.75
2023-03-10T07:53:31.907Z,93465.50
2023-03-10T07:56:11.986Z,93469.47
2023-03-10T07:58:43.658Z,93465.59
2023-03-10T08:01:18.114Z,93455.97
2023-03-10T08:03:50.277Z,93450.50
2023-03-10T08:06:24.566Z,93440.47
2023-03-10T08:08:56.950Z,93441.09
2023-03-10T08:11:28.446Z,93436.09
2023-03-10T08:14:00.214Z,93431.72
2023-03-10T08:16:31.880Z,93430.00
2023-03-10T08:19:03.774Z,93429.56
2023-03-10T08:21:35.315Z,93432.84
2023-03-10T08:24:07.217Z,93439.09
2023-03-10T08:26:38.838Z,93430.28
2023-03-10T08:29:10.364Z,93431.00
2023-03-10T08:31:42.102Z,93422.69
2023-03-10T08:34:14.604Z,93416.44
2023-03-10T08:36:46.180Z,93422.03
2023-03-10T08:39:17.666Z,93417.44
2023-03-10T08:41:49.836Z,93410.78
2023-03-10T08:44:22.200Z,93414.94
2023-03-10T08:46:54.964Z,93420.44
2023-03-10T08:49:26.509Z,93413.03
2023-03-10T08:51:59.203Z,93426.34
2023-03-10T08:54:32.571Z,93426.63
2023-03-10T08:57:04.351Z,93431.03
2023-03-10T08:59:36.197Z,93425.88
2023-03-10T09:02:08.125Z,93433.13
2023-03-10T09:04:39.797Z,93443.22
2023-03-10T09:07:13.099Z,93437.13
2023-03-10T09:09:44.594Z,93447.53
2023-03-10T09:12:16.156Z,93441.44
2023-03-10T09:14:50.771Z,93441.75
2023-03-10T09:17:22.419Z,93430.94
2023-03-10T09:19:54.000Z,93431.66
2023-03-10T09:22:25.533Z,93433.75
2023-03-10T09:24:59.474Z,93441.91
2023-03-10T09:27:32.305Z,93443.09
2023-03-10T09:30:04.101Z,93442.25
2023-03-10T09:32:36.903Z,93443.44
2023-03-10T09:35:08.690Z,93453.38
2023-03-10T09:37:40.304Z,93447.38
2023-03-10T09:40:18.080Z,93446.41
2023-03-10T09:42:59.873Z,93435.25
2023-03-10T09:45:43.671Z,93453.22
2023-03-10T09:48:27.318Z,93469.03
2023-03-10T09:51:05.787Z,93463.34
2023-03-10T09:54:02.209Z,93470.53
2023-03-10T09:56:36.241Z,93482.19
2023-03-10T09:59:32.333Z,93504.13
2023-03-10T10:02:17.931Z,93522.75
2023-03-10T10:04:55.854Z,93543.94
2023-03-10T10:07:34.273Z,93541.78
2023-03-10T10:10:12.809Z,93548.25
2023-03-10T10:12:46.207Z,93548.66
2023-03-10T10:15:22.416Z,93547.69
2023-03-10T10:18:25.579Z,93568.16
2023-03-10T10:21:40.275Z,93576.69
2023-03-10T10:24:18.223Z,93592.38
2023-03-10T10:26:50.319Z,93602.97
2023-03-10T10:29:42.311Z,93610.00
2023-03-10T10:32:16.111Z,93618.59
2023-03-10T10:34:49.246Z,93602.72
2023-03-10T10:37:42.771Z,93580.00
2023-03-10T10:40:26.179Z,93578.44
2023-03-10T10:43:00.814Z,93586.56
2023-03-10T10:45:36.350Z,93577.84
2023-03-10T10:48:32.068Z,93572.88
2023-03-10T10:51:05.171Z,93564.50
2023-03-10T10:53:40.130Z,93549.69
2023-03-10T10:56:18.563Z,93528.97
2023-03-10T10:59:06.138Z,93547.47
2023-03-10T11:01:56.131Z,93539.50
2023-03-10T11:04:46.099Z,93532.13
2023-03-10T11:07:27.017Z,93521.03
2023-03-10T11:09:58.803Z,93524.41
2023-03-10T11:12:36.686Z,93516.06
2023-03-10T11:15:15.652Z,93517.06
2023-03-10T11:17:56.165Z,93510.88
2023-03-10T11:20:37.964Z,93503.25
2023-03-10T11:23:18.545Z,93507.41
2023-03-10T11:25:56.148Z,93503.94
2023-03-10T11:28:46.555Z,93488.06
2023-03-10T11:31:40.215Z,93485.69
2023-03-10T11:34:35.360Z,93464.47
2023-03-10T11:37:18.115Z,93476.75
2023-03-10T11:40:19.670Z,93466.53
2023-03-10T11:43:13.767Z,93451.53
2023-03-10T11:45:52.916Z,93449.59
2023-03-10T11:49:03.085Z,93455.41
2023-03-10T11:51:46.435Z,93455.34
2023-03-10T11:54:32.817Z,93452.81
2023-03-10T11:57:18.336Z,93452.50
2023-03-10T11:59:59.712Z,93437.72
2023-03-10T12:03:07.160Z,93438.72
2023-03-10T12:05:57.448Z,93418.59
2023-03-10T12:08:33.445Z,93416.78
2023-03-10T12:11:13.604Z,93425.44
2023-03-10T12:13:49.002Z,93412.50
2023-03-10T12:16:24.418Z,93419.22
2023-03-10T12:18:56.646Z,93414.97
2023-03-10T12:21:30.093Z,93434.16
2023-03-10T12:24:05.535Z,93428.91
2023-03-10T12:26:40.849Z,93422.91
2023-03-10T12:29:21.183Z,93431.88
2023-03-10T12:31:54.692Z,93412.16
2023-03-10T12:34:29.191Z,93434.53
2023-03-10T12:37:11.150Z,93428.56
2023-03-10T12:39:44.243Z,93440.97
2023-03-10T12:42:32.805Z,93423.19
2023-03-10T12:45:28.406Z,93425.03
2023-03-10T12:48:17.810Z,93444.38
2023-03-10T12:51:01.701Z,93430.06
2023-03-10T12:53:40.153Z,93420.75
2023-03-10T12:56:11.581Z,93436.91
2023-03-10T12:59:02.885Z,93442.25
2023-03-10T13:01:49.524Z,93426.31
2023-03-10T13:04:27.617Z,93460.88
2023-03-10T13:07:04.129Z,93451.38
2023-03-10T13:09:42.365Z,93426.63
2023-03-10T13:12:21.400Z,93438.41
2023-03-10T13:14:57.349Z,93424.81
2023-03-10T13:17:31.209Z,93438.09
2023-03-10T13:20:13.402Z,93444.97
2023-03-10T13:22:58.346Z,93443.31
2023-03-10T13:25:32.541Z,93469.63
2023-03-10T13:28:11.683Z,93451.56
2023-03-10T13:30:43.267Z,93464.56
2023-03-10T13:33:32.255Z,93452.19
2023-03-10T13:36:35.687Z,93475.88
2023-03-10T13:39:27.882Z,93509.34
2023-03-10T13:42:01.884Z,93463.53
2023-03-10T13:44:44.424Z,93475.94
2023-03-10T13:47:20.624Z,93476.53
2023-03-10T13:50:00.659Z,93467.72
2023-03-10T13:52:32.329Z,93465.22
2023-03-10T13:55:16.675Z,93466.97
2023-03-10T13:57:48.918Z,93473.03
2023-03-10T14:00:24.817Z,93465.88
2023-03-10T14:02:56.727Z,93470.25
2023-03-10T14:05:57.706Z,93467.00
2023-03-10T14:08:30.989Z,93478.72
2023-03-10T14:11:31.007Z,93480.97
2023-03-10T14:14:08.215Z,93458.94
2023-03-10T14:16:59.992Z,93489.03
2023-03-10T14:19:43.720Z,93475.94
2023-03-10T14:22:22.451Z,93476.72
2023-03-10T14:24:57.758Z,93473.31
2023-03-10T14:27:29.409Z,93480.41
2023-03-10T14:30:04.671Z,93494.19
2023-03-10T14:32:36.198Z,93514.19
2023-03-10T14:35:12.874Z,93463.00
2023-03-10T14:37:44.369Z,93477.50
2023-03-10T14:40:17.284Z,93471.50
2023-03-10T14:42:51.807Z,93494.66
2023-03-10T14:45:27.855Z,93471.63
2023-03-10T14:48:04.184Z,93472.16
2023-03-10T14:50:36.486Z,93489.00
2023-03-10T14:53:12.271Z,93493.19
2023-03-10T14:55:47.776Z,93488.72
2023-03-10T14:58:25.307Z,93488.88
2023-03-10T15:00:57.013Z,93511.25
2023-03-10T15:03:28.678Z,93504.44
2023-03-10T15:06:01.331Z,93496.38
2023-03-10T15:08:32.863Z,93524.91
2023-03-10T15:11:04.526Z,93535.25
2023-03-10T15:13:38.042Z,93529.22
2023-03-10T15:16:14.248Z,93521.34
2023-03-10T15:18:47.206Z,93522.28
2023-03-10T15:21:19.238Z,93552.00
2023-03-10T15:23:50.816Z,93533.47
2023-03-10T15:26:22.355Z,93517.56
2023-03-10T15:28:54.075Z,93526.75
2023-03-10T15:31:25.681Z,93535.88
2023-03-10T15:33:57.299Z,93526.19
2023-03-10T15:36:28.866Z,93536.44
2023-03-10T15:39:00.362Z,93529.72
2023-03-10T15:41:36.796Z,93536.56
2023-03-10T15:44:08.650Z,93547.28
2023-03-10T15:46:42.295Z,93537.19
2023-03-10T15:49:14.014Z,93545.69
2023-03-10T15:51:47.014Z,93547.28
2023-03-10T15:54:18.763Z,93530.28
2023-03-10T15:56:50.624Z,93547.00
2023-03-10T15:59:22.269Z,93533.63
2023-03-10T16:01:54.284Z,93542.09
2023-03-10T16:04:27.145Z,93551.59
2023-03-10T16:07:03.656Z,93528.06
2023-03-10T16:09:35.176Z,93550.75
2023-03-10T16:12:07.260Z,93558.66
2023-03-10T16:14:38.777Z,93547.28
2023-03-10T16:17:11.736Z,93551.34
2023-03-10T16:19:43.409Z,93558.53
2023-03-10T16:22:15.828Z,93575.91
2023-03-10T16:24:47.370Z,93560.41
2023-03-10T16:27:18.976Z,93564.97
2023-03-10T16:29:50.595Z,93561.53
2023-03-10T16:32:22.681Z,93574.41
2023-03-10T16:34:54.387Z,93580.47
2023-03-10T16:37:27.640Z,93590.34
2023-03-10T16:39:59.203Z,93590.75
2023-03-10T16:42:36.075Z,93597.97
2023-03-10T16:45:08.155Z,93595.31
2023-03-10T16:47:41.139Z,93607.81
2023-03-10T16:50:14.341Z,93599.91
2023-03-10T16:52:46.040Z,93610.13
2023-03-10T16:55:19.972Z,93606.72
2023-03-10T16:57:51.520Z,93595.34
2023-03-10T17:00:23.222Z,93592.69
2023-03-10T17:02:56.398Z,93593.47
2023-03-10T17:05:28.186Z,93609.78
2023-03-10T17:08:02.955Z,93586.78
2023-03-10T17:10:34.931Z,93585.72
2023-03-10T17:13:06.520Z,93584.28
2023-03-10T17:15:38.052Z,93619.50
2023-03-10T17:18:09.826Z,93607.81
2023-03-10T17:20:41.426Z,93612.69
2023-03-10T17:23:12.970Z,93633.22
2023-03-10T17:25:45.309Z,93642.69
2023-03-10T17:28:16.991Z,93670.31
2023-03-10T17:30:48.837Z,93656.31
2023-03-10T17:33:20.341Z,93659.00
2023-03-10T17:35:51.822Z,93666.59
2023-03-10T17:38:23.445Z,93683.22
2023-03-10T17:40:54.942Z,93683.63
2023-03-10T17:43:34.512Z,93686.31
2023-03-10T17:46:09.344Z,93706.38
2023-03-10T17:48:41.841Z,93706.81
2023-03-10T17:51:16.693Z,93715.50
2023-03-10T17:53:48.598Z,93717.03
2023-03-10T17:56:21.969Z,93731.47
2023-03-10T17:58:54.619Z,93724.31
2023-03-10T18:01:28.684Z,93740.22
2023-03-10T18:04:00.800Z,93743.63
2023-03-10T18:06:35.520Z,93731.53
2023-03-10T18:09:12.035Z,93713.00
2023-03-10T18:11:43.904Z,93720.56
2023-03-10T18:14:15.929Z,93709.97
2023-03-10T18:16:47.488Z,93713.78
2023-03-10T18:19:21.556Z,93718.69
2023-03-10T18:21:53.381Z,93727.41
2023-03-10T18:24:25.773Z,93729.69
2023-03-10T18:26:57.175Z,93700.16
2023-03-10T18:29:29.052Z,93719.06
2023-03-10T18:32:01.024Z,93734.22
2023-03-10T18:34:33.742Z,93726.25
2023-03-10T18:37:06.556Z,93745.94
2023-03-10T18:39:40.973Z,93744.41
2023-03-10T18:42:12.777Z,93734.94
2023-03-10T18:44:47.094Z,93733.44
2023-03-10T18:47:19.050Z,93744.78
2023-03-10T18:49:51.018Z,93747.75
2023-03-10T18:52:23.014Z,93792.06
2023-03-10T18:54:56.409Z,93755.81
2023-03-10T18:57:36.714Z,93753.91
2023-03-10T19:00:09.239Z,93757.28
2023-03-10T19:02:45.432Z,93762.97
2023-03-10T19:05:18.361Z,93757.31
2023-03-10T19:07:50.078Z,93753.88
2023-03-10T19:10:21.968Z,93735.75
2023-03-10T19:12:54.922Z,93761.84
2023-03-10T19:15:29.534Z,93712.34
2023-03-10T19:18:01.027Z,93718.00
2023-03-10T19:20:33.550Z,93728.22
2023-03-10T19:23:05.116Z,93744.47
2023-03-10T19:25:40.440Z,93747.50
2023-03-10T19:28:12.400Z,93741.44
2023-03-10T19:30:44.048Z,93738.44
2023-03-10T19:33:18.750Z,93740.28
2023-03-10T19:36:04.259Z,93728.97
2023-03-10T19:38:37.056Z,93725.94
2023-03-10T19:41:15.934Z,93714.22
2023-03-10T19:43:53.868Z,93722.53
2023-03-10T19:46:25.788Z,93720.63
2023-03-10T19:48:57.702Z,93719.88
2023-03-10T19:51:33.375Z,93703.25
2023-03-10T19:54:05.778Z,93713.47
2023-03-10T19:56:37.282Z,93730.09
2023-03-10T19:59:10.291Z,93718.38
2023-03-10T20:01:43.996Z,93705.53
2023-03-10T20:04:17.164Z,93727.84
2023-03-10T20:06:48.717Z,93712.72
2023-03-10T20:09:20.882Z,93723.28
2023-03-10T20:11:53.450Z,93715.72
2023-03-10T20:14:26.987Z,93735.03
2023-03-10T20:16:59.642Z,93723.28
2023-03-10T20:19:31.267Z,93722.16
2023-03-10T20:22:06.110Z,93704.78
2023-03-10T20:24:37.740Z,93719.53
2023-03-10T20:27:09.312Z,93704.03
2023-03-10T20:29:42.461Z,93718.75
2023-03-10T20:32:14.218Z,93718.00
2023-03-10T20:34:45.799Z,93725.94
2023-03-10T20:37:17.662Z,93719.91
2023-03-10T20:39:49.174Z,93722.94
2023-03-10T20:42:20.965Z,93720.66
2023-03-10T20:44:52.503Z,93734.66
2023-03-10T20:47:29.479Z,93724.44
2023-03-10T20:50:03.689Z,93725.19
2023-03-10T20:52:38.222Z,93741.81
2023-03-10T20:55:31.247Z,93752.41
2023-03-10T20:58:04.357Z,93779.63
2023-03-10T21:00:35.856Z,93758.81
2023-03-10T21:03:07.756Z,93779.63
2023-03-10T21:05:39.344Z,93772.78
2023-03-10T21:08:11.178Z,93780.28
2023-03-10T21:10:44.669Z,93793.44
2023-03-10T21:13:16.497Z,93802.88
2023-03-10T21:15:48.141Z,93820.59
2023-03-10T21:18:19.854Z,93822.41
2023-03-10T21:20:51.559Z,93815.25
2023-03-10T21:23:23.104Z,93858.28
2023-03-10T21:25:54.718Z,93852.47
2023-03-10T21:28:26.253Z,93907.59
2023-03-10T21:30:57.967Z,93849.13
2023-03-10T21:33:29.555Z,93866.53
2023-03-10T21:36:01.669Z,93862.72
2023-03-10T21:38:33.426Z,93889.81
2023-03-10T21:41:05.640Z,93892.56
2023-03-10T21:43:37.232Z,93911.75
2023-03-10T21:46:09.270Z,93924.19
2023-03-10T21:48:41.331Z,93947.94
2023-03-10T21:51:14.843Z,93934.38
2023-03-10T21:53:46.813Z,93950.19
2023-03-10T21:56:19.714Z,93941.19
2023-03-10T21:58:51.341Z,93951.38
2023-03-10T22:01:23.903Z,93944.13
2023-03-10T22:03:55.565Z,93948.41
2023-03-10T22:06:28.402Z,93953.38
2023-03-10T22:08:59.924Z,93949.53
2023-03-10T22:11:31.613Z,93961.19
2023-03-10T22:14:03.336Z,93980.38
2023-03-10T22:16:34.911Z,93984.47
2023-03-10T22:19:06.439Z,93996.97
2023-03-10T22:21:37.910Z,93996.56
2023-03-10T22:24:09.389Z,94008.66
2023-03-10T22:26:40.996Z,94032.03
2023-03-10T22:29:14.341Z,94036.56
2023-03-10T22:31:45.818Z,94074.09
2023-03-10T22:34:17.317Z,94047.25
2023-03-10T22:36:48.868Z,94050.97
2023-03-10T22:39:21.486Z,94057.53
2023-03-10T22:41:53.052Z,94057.59
2023-03-10T22:44:24.620Z,94045.38
2023-03-10T22:46:56.429Z,94029.66
2023-03-10T22:49:28.157Z,94039.06
2023-03-10T22:51:59.813Z,94030.97
2023-03-10T22:54:31.373Z,94053.75
2023-03-10T22:57:03.076Z,94076.72
2023-03-10T22:59:34.600Z,94058.78
2023-03-10T23:02:06.119Z,94075.47
2023-03-10T23:04:37.814Z,94087.53
2023-03-10T23:07:09.306Z,94110.53
2023-03-10T23:09:41.024Z,94115.28
2023-03-10T23:12:12.529Z,94136.72
2023-03-10T23:14:44.284Z,94120.56
2023-03-10T23:17:15.865Z,94128.06
2023-03-10T23:19:51.418Z,94155.44
2023-03-10T23:22:23.521Z,94161.22
2023-03-10T23:24:55.300Z,94158.47
2023-03-10T23:27:26.922Z,94153.63
2023-03-10T23:29:59.236Z,94161.50
2023-03-10T23:32:30.697Z,94173.13
2023-03-10T23:35:06.286Z,94177.91
2023-03-10T23:37:37.893Z,94177.91
2023-03-10T23:40:13.830Z,94189.47
2023-03-10T23:42:46.180Z,94207.72
2023-03-10T23:45:18.881Z,94201.91
2023-03-10T23:47:51.618Z,94197.94
2023-03-10T23:50:26.622Z,94191.81
2023-03-10T23:52:58.416Z,94203.97
2023-03-10T23:55:33.171Z,94213.28
2023-03-10T23:58:05.932Z,94229.31
